Latest Weather Observations for PORTABLE QFRI (Inglewood)

IDQ60801

Issued at 9:32 am EST Friday 19 January 2018 (issued every 30 minutes, with the page automatically refreshed every 10 minutes)

About weather observations | Map of weather stations | Latest weather observations for QLD | Other Formats
Station Details ID: 250073 Name: PORTABLE QFRI (INGLEWOOD) Lat: -28.42 Lon: 151.10 Height: 286.0 m
Data from the previous 72 hours. | See also: Recent months for locations in Queensland
Date/Time
EST
Temp
°C
App
Temp
°C
Dew
Point
°C
Rel
Hum
%
Delta-T
°C
Wind Press
QNH
hPa
Press
MSL
hPa
Rain since
9am
mm
Dir  Spd
km/h
Gust
km/h
Spd
kts
Gust
kts
19/08:50am 26.8 26.3 12.6 41 8.4 ESE 7 9 4 5 - - -
19/08:40am 26.4 26.3 13.9 46 7.5 ESE 7 9 4 5 - - -
19/08:30am 26.0 26.3 14.4 48 7.0 ENE 6 7 3 4 - - -
19/08:20am 25.5 26.0 15.1 52 6.3 ENE 6 7 3 4 - - -
19/08:10am 25.1 25.6 15.1 53 6.1 ENE 6 7 3 4 - - -
19/08:00am 24.7 25.6 15.2 55 5.8 NE 4 7 2 4 - - -
19/07:50am 24.2 25.1 15.1 56 5.5 ENE 4 7 2 4 - - -
19/07:40am 23.6 23.9 14.5 56 5.4 NE 6 7 3 4 - - -
19/07:30am 23.2 23.5 14.6 58 5.1 NE 6 7 3 4 - - -
19/07:20am 22.7 23.0 14.5 60 4.9 NE 6 7 3 4 - - -
19/07:10am 22.3 22.6 14.4 61 4.7 NE 6 7 3 4 - - -
19/07:00am 21.8 22.1 14.6 63 4.3 NE 6 6 3 3 - - -
19/06:30am 20.2 20.8 14.2 68 3.5 NE 4 6 2 3 - - -
19/06:20am 19.2 19.8 14.2 73 2.9 N 4 4 2 2 - - -
19/06:10am 18.4 18.9 13.9 75 2.6 NE 4 6 2 3 - - -
19/06:00am 17.5 17.4 13.4 77 2.3 E 6 6 3 3 - - -
19/05:50am 17.2 17.3 13.8 80 2.0 E 6 6 3 3 - - -
19/05:40am 17.2 17.3 13.8 80 2.0 E 6 6 3 3 - - -
19/05:30am 16.7 16.6 13.3 80 1.9 ESE 6 6 3 3 - - -
19/05:20am 16.3 16.2 13.2 82 1.8 ESE 6 6 3 3 - - -
19/05:10am 16.3 16.2 13.4 83 1.6 ESE 6 6 3 3 - - -
19/05:00am 16.9 16.8 13.4 80 2.0 ESE 6 6 3 3 - - -
19/04:50am 17.4 17.5 13.9 80 2.0 ESE 6 6 3 3 - - -
19/04:40am 17.8 18.3 14.0 78 2.2 ESE 4 6 2 3 - - -
19/04:30am 18.2 19.2 14.2 77 2.3 ENE 2 4 1 2 - - -
19/04:20am 18.5 19.2 13.5 72 2.9 NE 2 4 1 2 - - -
19/04:10am 18.7 19.0 13.4 71 3.0 NNE 4 6 2 3 - - -
19/04:00am 18.8 19.1 13.5 71 3.1 NNE 4 6 2 3 - - -
19/03:50am 18.9 18.9 13.5 71 3.1 N 6 6 3 3 - - -
19/03:40am 19.1 19.0 13.4 69 3.3 NNE 6 7 3 4 - - -
19/03:30am 19.4 19.3 13.3 68 3.5 NNE 6 6 3 3 - - -
19/03:20am 19.5 19.4 13.4 68 3.5 NNE 6 7 3 4 - - -
19/03:10am 19.5 19.3 13.5 68 3.5 NNE 7 9 4 5 - - -
19/03:00am 19.5 18.8 13.3 67 3.6 NNE 9 9 5 5 - - -
19/02:50am 19.5 19.1 13.1 66 3.7 NNE 7 9 4 5 - - -
19/02:40am 19.7 19.4 12.8 64 3.9 NNE 6 6 3 3 - - -
19/02:30am 19.9 20.0 12.8 63 4.1 NNE 4 6 2 3 - - -
19/02:20am 20.0 19.7 12.7 63 4.2 NNE 6 7 3 4 - - -
19/02:10am 20.2 19.8 12.9 63 4.2 NNE 7 7 4 4 - - -
19/02:00am 20.5 20.3 13.1 62 4.3 NNE 6 9 3 5 - - -
19/01:50am 20.8 20.0 12.8 60 4.6 NNE 9 11 5 6 - - -
19/01:40am 20.8 20.3 12.7 59 4.6 NNE 7 7 4 4 - - -
19/01:20am 21.1 21.1 12.3 57 5.0 NE 4 6 2 3 - - -
19/01:10am 21.2 21.2 12.3 57 5.1 NE 4 6 2 3 - - -
19/01:00am 21.4 21.3 12.2 55 5.2 NE 4 6 2 3 - - -
19/12:50am 21.9 21.6 12.6 55 5.4 NE 6 6 3 3 - - -
19/12:40am 22.2 22.1 12.2 53 5.7 NE 4 6 2 3 - - -
19/12:30am 22.5 22.0 12.2 52 5.9 NE 6 6 3 3 - - -
19/12:20am 22.8 22.3 12.1 51 6.1 NE 6 7 3 4 - - -
19/12:10am 23.0 22.5 12.2 50 6.2 NE 6 7 3 4 - - -
19/12:00am 23.4 22.7 12.1 49 6.5 NE 7 9 4 5 - - -
 
Date/Time
EST
Temp
°C
App
Temp
°C
Dew
Point
°C
Rel
Hum
%
Delta-T
°C
Wind Press
QNH
hPa
Press
MSL
hPa
Rain since
9am
mm
Dir  Spd
km/h
Gust
km/h
Spd
kts
Gust
kts
18/11:50pm 23.7 23.0 11.9 47 6.8 NE 7 9 4 5 - - -
18/11:40pm 23.9 22.8 11.9 47 6.9 NE 9 11 5 6 - - -
18/11:30pm 23.9 22.7 11.5 45 7.1 NE 9 11 5 6 - - -
18/11:20pm 23.9 23.0 11.3 45 7.2 NE 7 9 4 5 - - -
18/11:10pm 24.1 23.1 10.9 43 7.5 NE 7 9 4 5 - - -
18/11:00pm 24.3 23.0 9.9 40 8.0 NE 7 9 4 5 - - -
18/10:50pm 24.4 23.3 9.8 39 8.1 NE 6 7 3 4 - - -
18/10:40pm 24.6 23.2 9.0 37 8.5 NE 6 7 3 4 - - -
18/10:30pm 24.7 23.1 8.2 35 8.9 NE 6 7 3 4 - - -
18/10:20pm 24.8 23.2 7.9 34 9.1 NE 6 7 3 4 - - -
18/10:10pm 25.1 22.6 8.0 33 9.2 ENE 11 15 6 8 - - -
18/10:00pm 25.1 21.4 7.8 33 9.3 ENE 17 19 9 10 - - -
18/09:50pm 25.3 21.6 7.9 33 9.4 ENE 17 19 9 10 - - -
18/09:40pm 26.0 22.2 7.5 30 9.9 ENE 17 19 9 10 - - -
18/09:30pm 26.7 23.0 6.5 27 10.7 ENE 15 19 8 10 - - -
18/09:20pm 26.9 23.5 5.7 26 11.1 ENE 13 15 7 8 - - -
18/09:10pm 26.5 23.6 4.9 25 11.1 ENE 9 13 5 7 - - -
18/09:00pm 27.1 24.3 5.1 24 11.4 ENE 9 11 5 6 - - -
18/08:50pm 27.6 24.7 4.9 23 11.8 ENE 9 11 5 6 - - -
18/08:40pm 27.8 24.9 4.9 23 11.9 NE 9 11 5 6 - - -
18/08:30pm 28.2 25.5 5.4 23 12.0 NE 9 11 5 6 - - -
18/08:20pm 28.5 25.7 5.3 23 12.2 ENE 9 11 5 6 - - -
18/08:10pm 29.1 25.9 5.2 22 12.6 NE 11 13 6 7 - - -
18/08:00pm 29.4 26.3 5.6 22 12.6 NE 11 15 6 8 - - -
18/07:50pm 29.6 26.5 5.7 22 12.7 NE 11 15 6 8 - - -
18/07:40pm 29.5 26.5 5.8 22 12.6 NE 11 13 6 7 - - -
18/07:30pm 29.1 27.5 8.2 27 11.6 NE 6 11 3 6 - - -
18/07:20pm 29.7 29.2 9.4 28 11.5 NNE 2 6 1 3 - - -
18/07:10pm 30.6 29.5 8.6 25 12.3 N 4 6 2 3 - - -
18/07:00pm 31.3 30.2 7.1 22 13.3 ENE 2 4 1 2 - - -
18/06:50pm 32.6 31.5 8.6 22 13.6 E 4 4 2 2 - - -
18/06:40pm 33.4 32.3 6.7 19 14.7 E 2 4 1 2 - - -
18/06:30pm 33.8 32.7 6.8 18 15.0 E 2 7 1 4 - - -
18/06:20pm 33.9 32.7 6.5 18 15.1 ENE 2 4 1 2 - - -
18/06:10pm 34.1 32.8 7.8 19 14.8 NNE 4 6 2 3 - - -
18/06:00pm 34.3 32.7 6.3 17 15.4 NE 4 6 2 3 - - -
18/05:50pm 34.2 32.8 7.2 19 15.1 SSE 4 7 2 4 - - -
18/05:40pm 34.2 32.8 7.3 19 15.0 S 4 6 2 3 - - -
18/05:30pm 34.0 31.8 6.0 17 15.3 S 7 11 4 6 - - -
18/05:20pm 34.1 32.2 7.4 19 14.9 SSE 7 9 4 5 - - -
18/05:10pm 34.5 32.8 7.7 19 15.1 S 6 7 3 4 - - -
18/05:00pm 34.8 33.8 7.5 18 15.4 SE 2 6 1 3 - - -
18/04:50pm 34.5 33.2 7.5 19 15.2 NNW 4 6 2 3 - - -
18/04:40pm 34.0 32.3 7.5 19 14.9 N 6 9 3 5 - - -
18/04:30pm 33.8 32.4 9.4 22 14.1 NNE 7 13 4 7 - - -
18/04:20pm 34.0 32.3 8.5 20 14.5 ENE 7 9 4 5 - - -
18/04:10pm 33.8 32.0 8.0 20 14.6 N 7 9 4 5 - - -
18/04:00pm 33.3 31.2 8.2 21 14.2 E 9 13 5 7 - - -
18/03:50pm 33.5 31.4 8.4 21 14.2 ENE 9 13 5 7 - - -
18/03:40pm 33.9 33.2 9.9 23 14.0 ENE 4 9 2 5 - - -
18/03:30pm 33.5 32.0 8.4 21 14.2 ENE 6 9 3 5 - - -
18/03:20pm 33.5 31.9 8.8 22 14.1 ENE 7 13 4 7 - - -
18/03:10pm 33.2 31.7 9.1 22 13.8 ENE 7 9 4 5 - - -
18/03:00pm 32.8 31.2 8.8 22 13.6 ENE 7 11 4 6 - - -
18/02:50pm 33.0 31.2 9.5 23 13.5 ENE 9 13 5 7 - - -
18/02:40pm 33.1 31.8 9.9 24 13.4 NNW 7 15 4 8 - - -
18/02:30pm 32.7 31.3 9.7 24 13.3 ENE 7 9 4 5 - - -
18/02:20pm 32.3 30.5 9.6 24 13.0 ENE 9 13 5 7 - - -
18/02:10pm 32.5 30.3 9.3 24 13.3 E 11 13 6 7 - - -
18/02:00pm 32.1 30.6 9.2 24 13.1 ENE 7 13 4 7 - - -
18/01:50pm 31.6 30.4 10.4 27 12.3 ENE 7 13 4 7 - - -
18/01:40pm 31.7 30.4 10.0 26 12.5 E 7 13 4 7 - - -
18/01:30pm 32.2 31.3 10.6 26 12.6 NE 6 9 3 5 - - -
18/01:20pm 32.4 31.5 10.8 26 12.7 NNE 6 9 3 5 - - -
18/01:10pm 32.0 31.2 11.2 28 12.2 NNW 6 11 3 6 - - -
18/01:00pm 31.3 30.7 10.5 27 12.1 WSW 4 9 2 5 - - -
18/12:50pm 30.8 29.9 10.6 28 11.7 ESE 6 13 3 7 - - -
18/12:40pm 30.7 29.8 10.8 29 11.6 S 6 9 3 5 - - -
18/12:30pm 30.3 28.3 10.3 29 11.5 E 11 17 6 9 - - -
18/11:50am 29.9 28.9 10.3 29 11.3 NNE 6 7 3 4 - - 0.0
18/11:40am 29.5 28.6 10.5 30 10.9 NE 6 9 3 5 - - 0.0
18/11:30am 29.4 28.7 12.0 34 10.3 E 7 9 4 5 - - 0.0
18/11:20am 29.2 29.5 13.3 37 9.6 ENE 4 7 2 4 - - 0.0
18/11:10am 28.7 29.2 14.0 40 8.9 ESE 4 7 2 4 - - 0.0
18/11:00am 28.5 28.4 13.9 40 8.8 ENE 7 9 4 5 - - 0.0
18/10:50am 28.9 29.5 14.3 40 8.9 E 4 7 2 4 - - 0.0
18/10:40am 28.8 29.3 14.0 40 9.0 WNW 4 6 2 3 - - 0.0
18/10:30am 28.0 28.6 14.3 43 8.3 S 4 6 2 3 - - 0.0
18/10:20am 27.3 27.7 14.8 46 7.6 S 6 9 3 5 - - 0.0
18/10:10am 27.5 28.7 15.0 46 7.7 SSE 2 4 1 2 - - 0.0
18/10:00am 27.0 27.3 14.4 46 7.6 WNW 6 9 3 5 - - 0.0
18/09:50am 26.8 27.0 14.8 47 7.3 N 7 9 4 5 - - 0.0
18/09:40am 26.6 27.2 14.3 46 7.4 NE 4 7 2 4 - - 0.0
18/09:30am 26.2 27.3 14.7 49 7.0 N 2 6 1 3 - - 0.0
18/09:20am 25.8 25.8 14.3 49 6.9 E 7 11 4 6 - - 0.0
18/09:10am 25.3 25.4 14.0 49 6.8 NE 6 9 3 5 - - 0.0
18/09:00am 25.0 24.5 13.9 50 6.6 NNE 9 15 5 8 - - 0.0
18/08:50am 24.4 23.9 13.9 52 6.2 NE 9 11 5 6 - - 0.0
18/08:40am 24.2 23.8 14.2 53 6.0 NNE 9 13 5 7 - - 0.0
18/08:30am 23.6 22.7 13.8 54 5.8 NE 11 15 6 8 - - 0.0
18/08:20am 23.3 23.0 14.4 57 5.3 NE 9 13 5 7 - - 0.0
18/08:10am 22.8 21.9 13.8 57 5.3 NE 11 15 6 8 - - 0.0
18/08:00am 22.5 21.6 13.7 57 5.2 NE 11 15 6 8 - - 0.0
18/07:50am 22.3 21.4 13.7 58 5.1 ENE 11 17 6 9 - - 0.0
18/07:40am 22.0 21.5 13.7 59 4.9 NE 9 13 5 7 - - 0.0
18/07:30am 21.7 20.8 13.6 60 4.7 ENE 11 17 6 9 - - 0.0
18/07:20am 21.2 19.5 13.6 62 4.4 ENE 15 19 8 10 - - 0.0
18/07:10am 20.8 19.1 13.6 63 4.2 E 15 15 8 8 - - 0.0
18/07:00am 20.5 19.3 13.9 66 3.9 E 13 17 7 9 - - 0.0
18/06:50am 20.2 19.0 13.9 67 3.7 E 13 15 7 8 - - 0.0
18/06:40am 19.7 18.9 13.9 69 3.4 ENE 11 13 6 7 - - 0.0
18/06:30am 19.2 18.7 13.9 71 3.1 ENE 9 11 5 6 - - 0.0
18/06:20am 18.9 18.4 13.7 72 3.0 ENE 9 9 5 5 - - 0.0
18/06:10am 18.3 18.2 13.8 75 2.6 ENE 7 7 4 4 - - 0.0
18/06:00am 17.9 17.9 13.5 75 2.5 ENE 6 7 3 4 - - 0.0
18/05:50am 17.7 17.6 13.3 75 2.5 ENE 6 7 3 4 - - 0.0
18/05:40am 17.3 17.1 13.1 76 2.4 ENE 6 6 3 3 - - 0.0
18/05:30am 17.0 16.8 12.9 77 2.3 ENE 6 7 3 4 - - 0.0
18/05:20am 17.0 16.8 12.9 77 2.3 ENE 6 7 3 4 - - 0.0
18/05:10am 16.9 16.6 12.8 77 2.3 ENE 6 7 3 4 - - 0.0
18/05:00am 16.8 16.3 12.7 77 2.3 ENE 7 7 4 4 - - 0.0
18/04:50am 16.4 15.9 12.6 78 2.1 ENE 7 9 4 5 - - 0.0
18/04:40am 16.2 15.8 12.9 81 1.9 ENE 7 9 4 5 - - 0.0
18/04:30am 16.8 16.4 12.9 78 2.2 ENE 7 7 4 4 - - 0.0
18/04:20am 17.5 17.1 13.0 75 2.6 ENE 7 9 4 5 - - 0.0
18/04:10am 17.8 17.3 12.8 72 2.8 ENE 7 7 4 4 - - 0.0
18/04:00am 17.8 17.3 12.8 72 2.8 ENE 7 9 4 5 - - 0.0
18/03:50am 17.7 17.2 12.7 72 2.8 ENE 7 9 4 5 - - 0.0
18/03:40am 17.6 17.1 12.6 72 2.8 ENE 7 9 4 5 - - 0.0
18/03:30am 17.9 17.7 12.9 72 2.8 ENE 6 7 3 4 - - 0.0
18/03:20am 18.4 18.1 12.8 70 3.2 ENE 6 6 3 3 - - 0.0
18/03:10am 18.6 18.3 12.7 68 3.3 NE 6 7 3 4 - - 0.0
18/03:00am 18.7 18.4 12.6 67 3.5 NE 6 7 3 4 - - 0.0
18/02:50am 19.0 18.7 12.7 67 3.6 ENE 6 7 3 4 - - 0.0
18/02:30am 19.4 18.9 12.7 65 3.8 NE 7 9 4 5 - - 0.0
18/02:20am 19.7 19.2 12.6 63 4.0 NE 7 9 4 5 - - 0.0
18/02:10am 19.9 19.0 12.6 63 4.2 NE 9 11 5 6 - - 0.0
18/02:00am 20.0 18.7 12.5 62 4.3 NE 11 13 6 7 - - 0.0
18/01:50am 20.0 19.1 12.5 62 4.3 NE 9 11 5 6 - - 0.0
18/01:40am 19.8 18.4 12.2 61 4.3 ENE 11 13 6 7 - - 0.0
18/01:30am 19.5 18.2 12.5 64 4.0 ENE 11 13 6 7 - - 0.0
18/01:20am 19.7 18.4 12.4 62 4.1 ENE 11 11 6 6 - - 0.0
18/01:10am 20.3 19.4 12.7 61 4.3 ENE 9 11 5 6 - - 0.0
18/01:00am 21.0 20.1 12.5 58 4.9 NE 9 11 5 6 - - 0.0
18/12:50am 21.3 19.9 12.3 56 5.1 NE 11 13 6 7 - - 0.0
18/12:40am 21.6 19.8 12.2 55 5.4 NE 13 17 7 9 - - 0.0
18/12:30am 21.6 19.3 11.9 54 5.5 ENE 15 19 8 10 - - 0.0
18/12:20am 21.3 18.7 12.0 55 5.3 ENE 17 20 9 11 - - 0.0
18/12:10am 21.4 19.1 11.8 54 5.4 ENE 15 17 8 9 - - 0.0
18/12:00am 21.7 19.8 11.8 53 5.6 E 13 15 7 8 - - 0.0
 
Date/Time
EST
Temp
°C
App
Temp
°C
Dew
Point
°C
Rel
Hum
%
Delta-T
°C
Wind Press
QNH
hPa
Press
MSL
hPa
Rain since
9am
mm
Dir  Spd
km/h
Gust
km/h
Spd
kts
Gust
kts
17/11:50pm 22.6 21.5 12.0 51 6.1 NE 9 11 5 6 - - 0.0
17/11:40pm 22.9 21.3 11.4 48 6.5 NE 11 15 6 8 - - 0.0
17/11:30pm 22.8 20.7 11.3 48 6.5 NE 13 15 7 8 - - 0.0
17/11:20pm 22.2 20.7 10.7 48 6.4 ENE 9 13 5 7 - - 0.0
17/11:10pm 22.5 21.1 9.6 44 7.1 ENE 7 9 4 5 - - 0.0
17/11:00pm 22.8 21.4 9.5 42 7.3 NE 7 7 4 4 - - 0.0
17/10:50pm 23.0 21.5 9.3 41 7.5 NE 7 7 4 4 - - 0.0
17/10:40pm 23.2 21.7 9.1 40 7.7 NE 7 7 4 4 - - 0.0
17/10:30pm 23.4 21.8 8.9 39 7.9 NE 7 9 4 5 - - 0.0
17/10:20pm 23.7 22.2 8.3 37 8.3 NE 6 7 3 4 - - 0.0
17/10:10pm 23.9 22.3 8.0 36 8.5 NE 6 7 3 4 - - 0.0
17/10:00pm 24.4 22.7 8.4 36 8.7 NE 7 9 4 5 - - 0.0
17/09:50pm 24.9 22.0 8.3 34 9.0 ENE 13 19 7 10 - - 0.0
17/09:40pm 24.5 21.3 8.5 36 8.7 ENE 15 20 8 11 - - 0.0
17/09:30pm 22.0 19.7 10.3 47 6.5 E 13 20 7 11 - - 0.0
17/09:20pm 22.5 22.4 12.0 51 6.0 E 4 6 2 3 - - 0.0
17/09:10pm 23.1 23.2 12.6 51 6.1 NE 4 4 2 2 - - 0.0
17/09:00pm 23.6 24.1 12.7 50 6.3 NE 2 4 1 2 - - 0.0
17/08:50pm 24.2 24.6 11.1 43 7.4 CALM 0 2 0 1 - - 0.0
17/08:40pm 24.1 23.9 10.5 42 7.6 WSW 2 4 1 2 - - 0.0
17/08:30pm 24.5 25.5 13.1 49 6.7 CALM 0 2 0 1 - - 0.0
17/08:20pm 24.9 25.1 10.7 40 8.0 CALM 0 0 0 0 - - 0.0
17/08:10pm 25.4 26.2 12.7 45 7.4 CALM 0 0 0 0 - - 0.0
17/08:00pm 26.2 26.4 11.7 40 8.4 N 2 4 1 2 - - 0.0
17/07:50pm 26.8 26.4 11.2 37 9.0 N 4 4 2 2 - - 0.0
17/07:40pm 27.8 26.8 9.0 30 10.5 NNW 4 6 2 3 - - 0.0
17/07:30pm 28.2 26.7 8.3 28 11.0 NNW 6 6 3 3 - - 0.0
17/07:20pm 28.6 27.4 7.9 27 11.4 NW 4 4 2 2 - - 0.0
17/07:10pm 29.1 28.1 7.2 25 11.9 NNW 2 4 1 2 - - 0.0
17/07:00pm 29.6 28.1 6.9 24 12.3 NNW 4 6 2 3 - - 0.0
17/06:50pm 30.1 28.2 6.9 23 12.6 N 6 6 3 3 - - 0.0
17/06:40pm 30.6 28.7 6.8 22 13.0 N 6 6 3 3 - - 0.0
17/06:30pm 31.2 29.4 7.0 22 13.3 NNW 6 7 3 4 - - 0.0
17/06:20pm 31.8 30.0 7.0 21 13.6 W 6 9 3 5 - - 0.0
17/06:10pm 32.3 31.1 6.3 19 14.2 WNW 2 6 1 3 - - 0.0
17/06:00pm 32.3 30.8 6.8 20 14.0 WSW 4 6 2 3 - - 0.0
17/05:50pm 32.3 30.4 6.5 20 14.1 W 6 7 3 4 - - 0.0
17/05:40pm 32.4 29.9 6.6 20 14.1 WSW 9 15 5 8 - - 0.0
17/05:30pm 32.7 30.8 6.5 19 14.4 NW 6 7 3 4 - - 0.0
17/05:20pm 32.9 30.7 6.2 19 14.6 W 7 11 4 6 - - 0.0
17/05:00pm 32.8 31.4 5.6 18 14.7 NNE 2 4 1 2 - - 0.0
17/04:50pm 32.3 30.5 7.1 21 13.9 E 6 9 3 5 - - 0.0
17/04:40pm 32.3 29.8 4.7 17 14.7 S 7 11 4 6 - - 0.0
17/04:30pm 32.4 30.7 5.7 19 14.4 SSE 4 6 2 3 - - 0.0
17/04:20pm 32.0 29.7 5.5 19 14.2 ENE 7 13 4 7 - - 0.0
17/04:10pm 31.9 29.6 5.8 19 14.1 E 7 11 4 6 - - 0.0
17/04:00pm 31.9 29.3 6.0 19 14.0 E 9 13 5 7 - - 0.0
17/03:50pm 31.7 28.8 6.4 20 13.8 E 11 15 6 8 - - 0.0
17/03:40pm 32.3 29.8 8.1 22 13.6 SSW 11 19 6 10 - - 0.0
17/03:30pm 31.9 30.3 6.3 20 13.9 SSW 4 6 2 3 - - 0.0
17/03:20pm 31.8 29.6 6.3 20 13.9 SSW 7 11 4 6 - - 0.0
17/03:10pm 31.7 29.0 7.3 22 13.5 SSE 11 15 6 8 - - 0.0
17/03:00pm 31.7 29.8 6.8 21 13.6 NE 6 9 3 5 - - 0.0
17/02:50pm 31.3 29.2 6.6 21 13.5 ENE 7 13 4 7 - - 0.0
17/02:40pm 31.1 28.2 6.6 21 13.3 S 11 17 6 9 - - 0.0
17/02:30pm 31.3 29.5 7.1 22 13.3 SSE 6 11 3 6 - - 0.0
17/02:20pm 31.1 28.8 7.6 23 13.0 SW 9 17 5 9 - - 0.0
17/02:10pm 31.0 27.9 7.3 22 13.0 SW 13 20 7 11 - - 0.0
17/02:00pm 30.9 28.0 8.2 24 12.7 SSE 13 24 7 13 - - 0.0
17/01:50pm 31.0 29.5 9.0 25 12.4 SSE 7 11 4 6 - - 0.0
17/01:40pm 31.1 29.2 7.7 23 13.0 WSW 7 13 4 7 - - 0.0
17/01:30pm 30.6 28.6 7.2 23 12.8 S 7 17 4 9 - - 0.0
17/01:20pm 30.0 27.2 6.9 23 12.6 SSE 11 15 6 8 - - 0.0
17/01:10pm 29.9 26.8 7.3 24 12.4 S 13 17 7 9 - - 0.0
17/01:00pm 29.7 27.8 7.6 25 12.1 ENE 7 11 4 6 - - 0.0
17/12:50pm 29.7 27.8 7.6 25 12.1 SSW 7 11 4 6 - - 0.0
17/12:40pm 29.3 27.2 6.5 23 12.3 ESE 7 15 4 8 - - 0.0
17/12:30pm 28.9 25.6 6.4 24 12.1 SSE 13 17 7 9 - - 0.0
17/12:20pm 29.8 28.1 7.6 25 12.2 W 6 13 3 7 - - 0.0
17/12:00pm 29.1 27.4 7.4 25 11.8 S 6 11 3 6 - - 0.0
17/11:50am 28.6 27.3 10.0 31 10.6 E 7 9 4 5 - - 0.0
17/11:40am 29.0 28.3 10.2 31 10.7 N 4 7 2 4 - - 0.0
17/11:30am 28.1 27.3 11.1 34 9.8 ENE 6 7 3 4 - - 0.0
17/11:20am 27.9 27.2 10.0 32 10.1 S 4 7 2 4 - - 0.0
17/11:10am 28.3 27.2 9.9 31 10.4 W 6 11 3 6 - - 0.0
17/11:00am 28.0 27.4 10.5 33 10.0 SE 4 7 2 4 - - 0.0
17/10:50am 27.5 26.8 9.9 33 9.9 WSW 4 7 2 4 - - 0.0
17/10:40am 27.0 25.4 7.9 30 10.4 W 6 9 3 5 - - 0.0
17/10:30am 26.8 26.1 10.2 35 9.4 NNE 4 7 2 4 - - 0.0
17/10:20am 26.1 25.4 10.2 36 9.0 ESE 4 7 2 4 - - 0.0
17/10:10am 25.9 25.1 10.9 39 8.5 SSE 6 9 3 5 - - 0.0
17/10:00am 25.5 24.8 11.3 41 8.1 SE 6 9 3 5 - - 0.0
17/09:50am 25.0 24.4 11.7 43 7.6 SSE 6 7 3 4 - - 0.0
17/09:40am 24.9 24.2 11.3 42 7.8 ESE 6 9 3 5 - - 0.0
17/09:30am 25.1 24.9 11.7 43 7.7 ENE 4 7 2 4 - - 0.0
17/09:20am 24.7 24.5 11.8 44 7.4 N 4 6 2 3 - - 0.0
17/09:10am 24.0 23.8 11.7 46 7.0 ESE 4 7 2 4 - - 0.0
17/09:00am 23.2 22.6 11.7 48 6.6 ENE 6 9 3 5 - - 0.0
17/08:50am 23.3 22.5 11.7 48 6.6 ESE 7 9 4 5 - - 0.0
17/08:40am 23.4 23.3 12.0 48 6.5 ENE 4 6 2 3 - - 0.0
17/08:30am 23.0 22.9 12.2 50 6.2 NE 4 7 2 4 - - 0.0
17/08:20am 22.5 22.1 12.4 52 5.8 NE 6 7 3 4 - - 0.0
17/08:10am 22.0 21.5 11.9 52 5.7 E 6 7 3 4 - - 0.0
17/08:00am 21.6 21.0 11.6 53 5.6 ENE 6 11 3 6 - - 0.0
17/07:50am 21.3 20.7 11.6 54 5.5 NE 6 9 3 5 - - 0.0
17/07:40am 21.0 20.3 12.1 56 5.1 NE 7 9 4 5 - - 0.0
17/07:30am 20.7 20.1 11.8 56 5.0 ENE 6 9 3 5 - - 0.0
17/07:20am 20.2 19.4 11.7 58 4.8 NE 7 9 4 5 - - 0.0
17/07:10am 19.8 19.0 11.8 60 4.5 NNE 7 7 4 4 - - 0.0
17/07:00am 19.5 18.4 12.0 62 4.2 NNE 9 11 5 6 - - 0.0
17/06:50am 19.3 18.6 12.0 62 4.1 NE 7 9 4 5 - - 0.0
17/06:40am 18.8 18.0 11.8 64 3.9 NE 7 9 4 5 - - 0.0
17/06:30am 18.3 18.3 12.3 68 3.4 NNE 4 6 2 3 - - 0.0
17/06:20am 17.6 18.0 12.5 72 2.9 NE 2 4 1 2 - - 0.0
17/06:10am 16.8 16.8 12.3 75 2.5 E 4 6 2 3 - - 0.0
17/06:00am 16.2 16.1 12.1 76 2.3 E 4 6 2 3 - - 0.0
17/05:50am 15.7 15.8 11.6 76 2.2 NE 2 4 1 2 - - 0.0
17/05:40am 15.4 15.6 11.7 78 2.0 NE 2 4 1 2 - - 0.0
17/05:30am 15.4 15.5 11.6 78 2.1 NE 2 4 1 2 - - 0.0
17/05:20am 15.5 15.3 11.7 78 2.1 NNE 4 7 2 4 - - 0.0
17/05:10am 15.6 14.9 11.5 76 2.2 N 6 6 3 3 - - 0.0
17/05:00am 15.4 15.1 11.6 78 2.1 NNE 4 6 2 3 - - 0.0
17/04:50am 15.7 15.5 11.7 77 2.2 NNE 4 4 2 2 - - 0.0
17/04:40am 15.7 15.9 11.7 77 2.2 NNE 2 4 1 2 - - 0.0
17/04:30am 15.7 15.8 11.6 76 2.2 NNE 2 4 1 2 - - 0.0
17/04:20am 15.7 15.8 11.5 76 2.3 NE 2 4 1 2 - - 0.0
17/04:10am 15.7 15.8 11.5 76 2.3 NE 2 6 1 3 - - 0.0
17/04:00am 15.8 15.1 11.5 75 2.4 ENE 6 6 3 3 - - 0.0
17/03:50am 16.3 16.0 11.6 74 2.6 ENE 4 6 2 3 - - 0.0
17/03:40am 16.6 16.3 11.5 72 2.8 ENE 4 4 2 2 - - 0.0
17/03:30am 16.8 16.9 11.6 71 2.9 NE 2 4 1 2 - - 0.0
17/03:20am 17.1 16.8 11.5 69 3.1 NE 4 4 2 2 - - 0.0
17/03:10am 17.2 16.9 11.5 69 3.1 NE 4 4 2 2 - - 0.0
17/03:00am 17.2 16.9 11.4 68 3.2 NE 4 4 2 2 - - 0.0
17/02:50am 17.1 16.8 11.3 68 3.2 NE 4 6 2 3 - - 0.0
17/02:40am 16.7 16.4 11.3 70 3.0 NE 4 6 2 3 - - 0.0
17/02:30am 16.4 15.6 11.8 74 2.5 ENE 7 7 4 4 - - 0.0
17/02:20am 17.1 16.4 12.1 72 2.8 ENE 7 7 4 4 - - 0.0
17/02:10am 17.8 17.1 11.5 66 3.5 ENE 6 7 3 4 - - 0.0
17/02:00am 18.1 17.2 11.5 65 3.7 ENE 7 9 4 5 - - 0.0
17/01:40am 18.2 17.3 11.4 64 3.8 ENE 7 9 4 5 - - 0.0
17/01:30am 18.4 17.2 11.6 64 3.8 ENE 9 9 5 5 - - 0.0
17/01:20am 18.5 17.3 11.6 64 3.8 ENE 9 9 5 5 - - 0.0
17/01:10am 18.6 17.0 11.6 63 3.9 ENE 11 13 6 7 - - 0.0
17/01:00am 18.7 16.8 11.8 64 3.9 ENE 13 15 7 8 - - 0.0
17/12:50am 19.1 16.8 11.7 62 4.1 ENE 15 17 8 9 - - 0.0
17/12:40am 19.4 16.7 11.8 61 4.3 ENE 17 20 9 11 - - 0.0
17/12:30am 19.7 17.0 11.8 60 4.4 ENE 17 19 9 10 - - 0.0
17/12:20am 19.8 17.1 11.8 60 4.5 ENE 17 17 9 9 - - 0.0
17/12:10am 20.0 17.3 11.7 59 4.7 ENE 17 19 9 10 - - 0.0
17/12:00am 20.4 17.3 11.5 56 5.0 ENE 19 22 10 12 - - 0.0
 
Date/Time
EST
Temp
°C
App
Temp
°C
Dew
Point
°C
Rel
Hum
%
Delta-T
°C
Wind Press
QNH
hPa
Press
MSL
hPa
Rain since
9am
mm
Dir  Spd
km/h
Gust
km/h
Spd
kts
Gust
kts
16/11:50pm 20.6 17.4 11.2 55 5.2 E 19 20 10 11 - - 0.0
16/11:40pm 21.0 17.8 11.3 54 5.4 ENE 19 24 10 13 - - 0.0
16/11:30pm 21.2 17.9 11.0 52 5.7 ENE 19 22 10 12 - - 0.0
16/11:20pm 21.2 18.3 10.9 51 5.7 ENE 17 20 9 11 - - 0.0
16/11:10pm 21.6 18.9 10.2 48 6.3 ENE 15 19 8 10 - - 0.0
16/11:00pm 21.8 19.1 10.4 48 6.3 ENE 15 15 8 8 - - 0.0
16/10:50pm 22.3 19.4 9.8 45 6.9 ENE 15 17 8 9 - - 0.0
16/10:40pm 22.2 19.4 10.0 46 6.7 ENE 15 17 8 9 - - 0.0
16/10:30pm 22.2 19.0 9.8 45 6.8 ENE 17 19 9 10 - - 0.0
16/10:20pm 22.4 19.7 10.3 46 6.7 ENE 15 19 8 10 - - 0.0
16/10:10pm 23.7 21.0 10.5 43 7.4 ENE 15 17 8 9 - - 0.0
16/10:00pm 23.8 21.2 9.2 39 8.0 ENE 13 19 7 10 - - 0.0
16/09:50pm 23.3 21.5 9.4 41 7.6 ENE 9 13 5 7 - - 0.0
16/09:40pm 23.6 21.5 9.8 41 7.6 ENE 11 13 6 7 - - 0.0
16/09:30pm 24.4 22.2 9.5 38 8.2 ENE 11 13 6 7 - - 0.0
16/09:20pm 24.7 22.4 9.1 37 8.6 ENE 11 13 6 7 - - 0.0
16/09:10pm 24.5 22.2 9.0 37 8.5 ENE 11 11 6 6 - - 0.0
16/09:00pm 24.0 21.4 9.2 39 8.1 ENE 13 17 7 9 - - 0.0
16/08:40pm 24.6 21.6 9.4 38 8.4 ENE 15 17 8 9 - - 0.0
16/08:30pm 24.5 21.6 8.1 35 8.8 ENE 13 17 7 9 - - 0.0
16/08:20pm 22.7 20.8 10.6 46 6.8 E 11 17 6 9 - - 0.0
16/08:10pm 25.0 24.4 9.1 36 8.7 NE 2 4 1 2 - - 0.0
16/08:00pm 25.3 24.4 7.7 32 9.5 ENE 2 2 1 1 - - 0.0
16/07:50pm 25.8 24.9 6.1 28 10.3 CALM 0 0 0 0 - - 0.0
16/07:40pm 26.0 24.5 7.0 29 10.1 E 4 4 2 2 - - 0.0
16/07:30pm 26.1 25.2 7.7 31 9.9 ESE 2 4 1 2 - - 0.0
16/07:20pm 26.7 25.8 7.8 30 10.3 ESE 2 4 1 2 - - 0.0
16/06:50pm 29.1 28.3 8.2 27 11.6 ENE 2 4 1 2 - - 0.0
16/06:40pm 29.7 28.4 5.8 22 12.7 NE 2 4 1 2 - - 0.0
16/06:30pm 30.4 29.6 8.0 24 12.4 ENE 2 4 1 2 - - 0.0
16/06:20pm 31.0 28.9 5.7 20 13.6 E 6 7 3 4 - - 0.0
16/06:00pm 31.7 29.5 3.3 16 14.7 E 4 7 2 4 - - 0.0
16/05:50pm 32.0 30.2 3.3 16 14.9 NE 2 4 1 2 - - 0.0
16/05:40pm 31.9 29.6 2.6 15 15.0 NE 4 7 2 4 - - 0.0
16/05:30pm 32.0 29.7 2.6 15 15.1 NE 4 6 2 3 - - 0.0
16/05:20pm 31.9 29.9 4.5 18 14.5 ENE 4 6 2 3 - - 0.0
16/05:10pm 31.8 29.5 2.8 16 14.9 ENE 4 7 2 4 - - 0.0
16/05:00pm 31.8 29.2 3.3 16 14.8 ENE 6 9 3 5 - - 0.0
16/04:50pm 31.8 29.7 3.9 17 14.6 NNE 4 7 2 4 - - 0.0
16/04:40pm 31.8 29.3 4.9 18 14.3 NE 7 9 4 5 - - 0.0
16/04:30pm 32.2 30.4 5.3 18 14.4 NE 4 7 2 4 - - 0.0
16/04:20pm 32.2 30.2 4.5 17 14.7 NNW 4 7 2 4 - - 0.0
16/04:00pm 32.1 29.5 3.3 16 14.9 WNW 6 9 3 5 - - 0.0
16/03:50pm 32.0 29.3 3.7 16 14.8 NW 7 9 4 5 - - 0.0
16/03:40pm 31.8 29.6 5.2 18 14.2 NNW 6 9 3 5 - - 0.0
16/03:30pm 31.7 29.3 5.3 19 14.1 N 7 13 4 7 - - 0.0
16/03:20pm 31.6 28.6 4.2 17 14.4 NW 9 11 5 6 - - 0.0
16/03:10pm 31.4 28.9 5.0 19 14.0 N 7 11 4 6 - - 0.0
16/03:00pm 31.3 29.2 5.7 20 13.7 NNE 6 11 3 6 - - 0.0
16/02:50pm 30.7 28.5 5.1 20 13.6 NE 6 9 3 5 - - 0.0
16/02:40pm 30.5 28.1 5.1 20 13.4 NNE 7 11 4 6 - - 0.0
16/02:30pm 30.6 27.3 4.8 19 13.6 NNE 11 17 6 9 - - 0.0
16/02:20pm 30.2 27.5 5.7 21 13.1 ENE 9 15 5 8 - - 0.0
16/02:10pm 31.1 28.8 5.0 19 13.8 NNW 6 11 3 6 - - 0.0
16/02:00pm 30.1 27.8 4.6 20 13.4 ENE 6 9 3 5 - - 0.0
16/01:50pm 29.8 26.9 4.9 20 13.1 NNE 9 11 5 6 - - 0.0
16/01:40pm 29.6 27.2 5.4 21 12.8 NNE 7 13 4 7 - - 0.0
16/01:30pm 29.9 27.5 5.4 21 13.0 N 7 9 4 5 - - 0.0
16/01:20pm 30.2 28.7 6.6 22 12.8 NE 4 7 2 4 - - 0.0
16/01:10pm 29.6 27.3 5.0 21 12.9 WNW 6 7 3 4 - - 0.0
16/01:00pm 29.2 28.0 6.6 24 12.2 N 2 4 1 2 - - 0.0
16/12:50pm 28.5 26.8 5.9 24 12.0 ESE 4 6 2 3 - - 0.0
16/12:40pm 28.1 25.8 5.5 23 11.9 SE 7 11 4 6 - - 0.0
16/12:30pm 28.6 26.8 7.0 25 11.7 ESE 6 9 3 5 - - 0.0
16/12:20pm 28.6 26.8 5.2 22 12.3 NNE 4 7 2 4 - - 0.0
16/12:10pm 28.2 26.3 4.9 22 12.1 SE 4 9 2 5 - - 0.0
16/12:00pm 27.9 26.1 5.2 23 11.9 S 4 9 2 5 - - 0.0
16/11:50am 27.4 25.3 5.6 25 11.4 ENE 6 9 3 5 - - 0.0
16/11:40am 27.1 25.0 5.7 25 11.2 ENE 6 9 3 5 - - 0.0
16/11:30am 26.9 24.7 6.3 27 10.9 NNE 7 9 4 5 - - 0.0
16/11:20am 27.0 24.9 6.7 27 10.8 N 7 11 4 6 - - 0.0
16/11:10am 27.1 25.5 6.5 27 11.0 NNW 4 7 2 4 - - 0.0
16/11:00am 26.0 24.4 8.7 33 9.5 ENE 7 15 4 8 - - 0.0
16/10:50am 25.9 23.0 6.7 29 10.2 E 11 15 6 8 - - 0.0
16/10:40am 26.2 24.6 8.0 31 9.9 N 6 9 3 5 - - 0.0
16/10:30am 25.8 24.8 8.8 34 9.3 N 4 7 2 4 - - 0.0
16/10:20am 25.1 23.6 8.6 35 9.0 ESE 6 11 3 6 - - 0.0
16/10:10am 25.1 23.6 8.3 34 9.1 E 6 11 3 6 - - 0.0
16/10:00am 25.1 23.7 8.8 35 8.9 NNE 6 7 3 4 - - 0.0
16/09:50am 25.1 23.5 8.9 35 8.9 E 7 11 4 6 - - 0.0
16/09:40am 24.6 22.8 8.0 34 8.9 ENE 7 11 4 6 - - 0.0

Other Formats:

Comma delimited format used in spreadsheet applications
http://www.bom.gov.au/fwo/IDQ60801/IDQ60801.99122.axf

JavaScript Object Notation format (JSON) in row-major order
http://www.bom.gov.au/fwo/IDQ60801/IDQ60801.99122.json